Time;durP1;ratioP1;P1;durP2;ratioP2;P2;SDS_P1;SDS_P2;PMS_P1;PMS_P2;Temp;Humidity;BMP_temperature;BMP_pressure;BME280_temperature;BME280_humidity;BME280_pressure;Samples;Min_cycle;Max_cycle;Signal;HPM_P1;HPM_P2
2022/08/03 00:01:18;;;;;;;6.13;2.22;;;17.30;99.90;;;;;;5007078;28;20048;-38
2022/08/03 00:03:44;;;;;;;10.90;2.45;;;17.40;99.90;;;;;;5007094;28;20498;-38
2022/08/03 00:06:10;;;;;;;6.85;2.65;;;17.40;99.90;;;;;;5007635;28;20042;-38
2022/08/03 00:08:35;;;;;;;6.13;2.10;;;17.40;99.90;;;;;;5007725;28;20060;-38
2022/08/03 00:11:01;;;;;;;7.88;1.90;;;17.50;99.90;;;;;;5007335;28;20038;-37
2022/08/03 00:13:27;;;;;;;10.60;2.30;;;17.50;99.90;;;;;;5007086;28;20065;-37
2022/08/03 00:15:54;;;;;;;7.53;2.30;;;17.50;99.90;;;;;;5006922;28;20049;-37
2022/08/03 00:18:20;;;;;;;9.98;2.20;;;17.50;99.90;;;;;;5007112;28;20057;-37
2022/08/03 00:20:45;;;;;;;6.57;1.75;;;17.50;99.90;;;;;;5007076;28;20531;-37
2022/08/03 00:23:11;;;;;;;5.78;2.08;;;17.50;99.90;;;;;;5007679;28;20399;-37
2022/08/03 00:25:37;;;;;;;7.90;1.80;;;17.40;99.90;;;;;;5007032;28;20104;-38
2022/08/03 00:28:04;;;;;;;8.85;1.80;;;17.40;99.90;;;;;;5006890;28;20538;-38
2022/08/03 00:30:30;;;;;;;6.90;1.70;;;17.40;99.90;;;;;;5007291;28;20059;-38
2022/08/03 00:32:56;;;;;;;6.60;1.75;;;17.40;99.90;;;;;;5006580;28;20052;-38
2022/08/03 00:35:22;;;;;;;6.55;1.45;;;17.40;99.90;;;;;;5006737;28;20050;-38
2022/08/03 00:37:48;;;;;;;6.18;1.63;;;17.30;99.90;;;;;;5006548;28;20049;-38
2022/08/03 00:40:15;;;;;;;4.65;1.38;;;17.30;99.90;;;;;;5006926;28;20073;-37
2022/08/03 00:43:04;;;;;;;4.63;0.85;;;17.50;99.90;;;;;;5007077;28;20046;-37
2022/08/03 00:45:35;;;;;;;6.10;1.00;;;17.30;99.90;;;;;;5007361;28;20046;-37
2022/08/03 00:48:03;;;;;;;4.07;1.33;;;17.30;99.90;;;;;;5007210;28;20053;-37
2022/08/03 00:50:33;;;;;;;6.18;1.50;;;17.30;99.90;;;;;;5006951;28;20038;-37
2022/08/03 00:52:59;;;;;;;5.85;1.33;;;17.50;99.90;;;;;;5006711;28;20129;-37
2022/08/03 00:55:26;;;;;;;5.13;1.05;;;17.10;99.90;;;;;;5006245;28;20046;-37
2022/08/03 00:57:51;;;;;;;8.35;1.50;;;17.20;99.90;;;;;;5005886;28;20046;-37
2022/08/03 01:00:20;;;;;;;6.97;0.95;;;17.10;99.90;;;;;;5005964;28;20530;-37
2022/08/03 01:02:46;;;;;;;7.75;1.10;;;17.00;99.90;;;;;;5005959;28;20121;-37
2022/08/03 01:05:12;;;;;;;6.32;0.80;;;17.00;99.90;;;;;;5005919;28;20065;-37
2022/08/03 01:07:59;;;;;;;5.05;1.13;;;17.00;99.90;;;;;;5006588;28;20427;-37
2022/08/03 01:10:35;;;;;;;5.18;0.70;;;17.00;99.90;;;;;;5006676;28;20590;-37
2022/08/03 01:13:22;;;;;;;8.88;1.42;;;17.10;99.90;;;;;;5005809;28;20054;-37
2022/08/03 01:16:07;;;;;;;5.38;0.80;;;17.10;99.90;;;;;;5005910;28;20463;-37
2022/08/03 01:18:42;;;;;;;10.35;1.35;;;17.10;99.90;;;;;;5006518;28;20052;-37
2022/08/03 01:21:27;;;;;;;7.68;1.60;;;17.10;99.90;;;;;;5006204;28;20037;-37
2022/08/03 01:24:04;;;;;;;6.70;1.33;;;17.10;99.90;;;;;;5004621;28;20112;-37
2022/08/03 01:26:38;;;;;;;8.98;1.27;;;17.30;99.90;;;;;;5006492;28;20142;-37
2022/08/03 01:29:31;;;;;;;6.93;1.80;;;17.20;99.90;;;;;;5006654;28;20414;-37
2022/08/03 01:32:04;;;;;;;6.40;1.33;;;17.20;99.90;;;;;;5009056;28;20092;-37
2022/08/03 01:34:33;;;;;;;4.18;1.35;;;17.20;99.90;;;;;;5010578;28;20050;-37
2022/08/03 01:37:01;;;;;;;5.50;1.70;;;17.20;99.90;;;;;;5010062;28;20049;-37
2022/08/03 01:39:28;;;;;;;7.10;1.73;;;17.20;99.90;;;;;;5010178;28;20050;-37
2022/08/03 01:42:01;;;;;;;9.05;1.70;;;17.10;99.90;;;;;;5010072;28;20041;-37
2022/08/03 01:44:30;;;;;;;9.60;2.05;;;17.10;99.90;;;;;;5010318;28;20046;-37
2022/08/03 01:46:58;;;;;;;6.13;2.42;;;17.10;99.90;;;;;;5009850;28;20048;-37
2022/08/03 01:49:26;;;;;;;7.05;2.58;;;17.10;99.90;;;;;;5009643;28;20499;-37
2022/08/03 01:51:52;;;;;;;9.02;2.53;;;17.10;99.90;;;;;;5010046;28;20049;-37
2022/08/03 01:54:21;;;;;;;8.50;2.95;;;17.00;99.90;;;;;;5009828;28;20061;-37
2022/08/03 01:56:47;;;;;;;7.57;3.25;;;17.10;99.90;;;;;;5009397;28;20085;-37
2022/08/03 01:59:16;;;;;;;7.75;3.08;;;17.10;99.90;;;;;;5009109;28;20046;-37
2022/08/03 02:01:43;;;;;;;10.18;3.72;;;17.10;99.90;;;;;;5009628;28;20100;-37
2022/08/03 02:04:11;;;;;;;6.82;3.45;;;17.10;99.90;;;;;;5009315;28;20046;-37
2022/08/03 02:06:38;;;;;;;7.43;3.80;;;17.00;99.90;;;;;;5009376;28;20502;-37
2022/08/03 02:09:06;;;;;;;7.20;3.60;;;17.00;99.90;;;;;;5009693;28;20387;-37
2022/08/03 02:11:34;;;;;;;9.63;3.22;;;16.90;99.90;;;;;;5009841;28;20061;-37
2022/08/03 02:14:02;;;;;;;7.65;3.17;;;16.90;99.90;;;;;;5009081;28;20062;-37
2022/08/03 02:16:31;;;;;;;10.90;3.53;;;16.90;99.90;;;;;;5009103;28;20080;-37
2022/08/03 02:18:57;;;;;;;10.52;3.05;;;17.00;99.90;;;;;;5008890;28;20046;-37
2022/08/03 02:21:25;;;;;;;11.88;3.95;;;16.80;99.90;;;;;;5007585;28;20479;-37
2022/08/03 02:23:51;;;;;;;7.38;3.03;;;16.70;99.90;;;;;;5009422;28;20153;-37
2022/08/03 02:26:19;;;;;;;7.55;3.20;;;16.50;99.90;;;;;;5009186;28;20041;-37
2022/08/03 02:28:48;;;;;;;12.20;3.47;;;16.60;99.90;;;;;;5008887;28;20053;-37
2022/08/03 02:31:22;;;;;;;9.48;3.85;;;16.50;99.90;;;;;;5008637;28;20050;-38
2022/08/03 02:33:56;;;;;;;10.50;3.30;;;16.50;99.90;;;;;;5008753;28;20392;-38
2022/08/03 02:36:25;;;;;;;8.77;3.38;;;16.60;99.90;;;;;;5008839;28;20046;-38
2022/08/03 02:38:54;;;;;;;6.72;3.55;;;16.60;99.90;;;;;;5008521;28;20085;-38
2022/08/03 02:41:26;;;;;;;8.23;3.55;;;16.60;99.90;;;;;;5008176;28;20064;-38
2022/08/03 02:43:55;;;;;;;10.00;3.58;;;16.60;99.90;;;;;;5008687;28;20431;-38
2022/08/03 02:46:24;;;;;;;6.20;2.88;;;16.60;99.90;;;;;;5008741;28;20104;-38
2022/08/03 02:48:51;;;;;;;10.52;3.35;;;16.60;99.90;;;;;;5009268;28;20049;-38
2022/08/03 02:51:19;;;;;;;9.13;3.42;;;16.40;99.90;;;;;;5009252;28;20415;-38
2022/08/03 02:53:46;;;;;;;10.57;3.53;;;16.50;99.90;;;;;;5009520;28;20057;-38
2022/08/03 02:56:12;;;;;;;7.38;2.75;;;16.40;99.90;;;;;;5009099;28;20184;-38
2022/08/03 02:58:41;;;;;;;7.25;3.47;;;16.50;99.90;;;;;;5008843;28;20137;-38
2022/08/03 03:01:08;;;;;;;8.48;3.38;;;16.50;99.90;;;;;;5008840;28;20104;-38
2022/08/03 03:03:34;;;;;;;10.68;3.42;;;16.40;99.90;;;;;;5009072;28;20061;-38
2022/08/03 03:06:01;;;;;;;8.88;3.33;;;16.50;99.90;;;;;;5008721;28;20462;-38
2022/08/03 03:08:28;;;;;;;11.73;3.20;;;16.50;99.90;;;;;;5008841;28;20541;-38
2022/08/03 03:10:56;;;;;;;9.73;3.30;;;16.50;99.90;;;;;;5008398;28;20069;-38
2022/08/03 03:13:22;;;;;;;10.75;3.58;;;14.80;99.90;;;;;;5007943;28;20068;-38
2022/08/03 03:15:49;;;;;;;7.45;3.47;;;16.50;99.90;;;;;;5008455;28;20053;-38
2022/08/03 03:18:16;;;;;;;7.80;3.60;;;16.50;99.90;;;;;;5008073;28;20422;-38
2022/08/03 03:20:44;;;;;;;9.93;3.42;;;16.50;99.90;;;;;;5008215;28;20050;-38
2022/08/03 03:23:10;;;;;;;9.40;3.35;;;16.40;99.90;;;;;;5007807;28;20073;-37
2022/08/03 03:25:37;;;;;;;5.18;2.92;;;16.40;99.90;;;;;;5008095;28;20038;-38
2022/08/03 03:28:03;;;;;;;12.32;3.53;;;16.40;99.90;;;;;;5007800;28;20415;-38
2022/08/03 03:30:29;;;;;;;13.75;4.25;;;16.40;99.90;;;;;;5006430;28;20045;-38
2022/08/03 03:32:57;;;;;;;7.22;3.15;;;16.40;99.90;;;;;;5007690;28;20395;-37
2022/08/03 03:35:23;;;;;;;14.98;3.92;;;16.60;99.90;;;;;;5007581;28;20049;-37
2022/08/03 03:37:49;;;;;;;7.78;3.55;;;16.40;99.90;;;;;;5007582;28;20451;-37
2022/08/03 03:40:14;;;;;;;9.98;3.80;;;16.40;99.90;;;;;;5007423;28;20496;-37
2022/08/03 03:42:40;;;;;;;9.88;3.05;;;16.40;99.90;;;;;;5007571;28;20068;-37
2022/08/03 03:45:07;;;;;;;9.85;3.75;;;16.40;99.90;;;;;;5007465;28;20128;-37
2022/08/03 03:47:34;;;;;;;9.60;3.85;;;16.30;99.90;;;;;;5006435;28;20068;-37
2022/08/03 03:50:01;;;;;;;11.57;3.70;;;16.40;99.90;;;;;;5007548;28;20042;-37
2022/08/03 03:52:27;;;;;;;9.10;4.15;;;16.40;99.90;;;;;;5007191;28;20076;-38
2022/08/03 03:54:53;;;;;;;12.75;3.53;;;16.40;99.90;;;;;;5006360;28;20477;-37
2022/08/03 03:57:18;;;;;;;10.63;4.15;;;16.40;99.90;;;;;;5006856;28;20331;-37
2022/08/03 03:59:44;;;;;;;9.88;4.00;;;16.40;99.90;;;;;;5007291;28;20562;-37
2022/08/03 04:02:10;;;;;;;15.30;3.85;;;16.40;99.90;;;;;;5006970;28;20048;-37
2022/08/03 04:13:08;;;;;;;8.57;4.05;;;16.30;99.90;;;;;;5006894;28;20122;-38
2022/08/03 04:15:36;;;;;;;8.90;3.75;;;16.30;99.90;;;;;;5007632;28;20052;-38
2022/08/03 04:18:03;;;;;;;11.75;3.70;;;16.30;99.90;;;;;;5007862;28;20052;-38
2022/08/03 04:20:31;;;;;;;9.82;3.63;;;16.30;99.90;;;;;;5007473;28;20049;-38
2022/08/03 04:22:59;;;;;;;9.07;3.25;;;16.30;99.90;;;;;;5007567;28;20046;-38
2022/08/03 04:25:29;;;;;;;7.53;3.40;;;16.40;99.90;;;;;;5007217;28;20038;-38
2022/08/03 04:27:59;;;;;;;7.47;3.47;;;16.30;99.90;;;;;;5007092;28;20045;-38
2022/08/03 04:30:27;;;;;;;10.38;3.70;;;16.40;99.90;;;;;;5006458;28;20077;-38
2022/08/03 04:32:57;;;;;;;12.18;3.42;;;16.30;99.90;;;;;;5005095;28;20057;-38
2022/08/03 04:35:30;;;;;;;10.68;3.40;;;16.30;99.90;;;;;;5006970;28;20054;-38
2022/08/03 04:38:01;;;;;;;11.43;3.97;;;16.30;99.90;;;;;;5006792;28;20038;-38
2022/08/03 04:40:31;;;;;;;7.00;3.43;;;16.40;99.90;;;;;;5006924;28;20045;-38
2022/08/03 04:42:58;;;;;;;11.20;3.70;;;16.40;99.90;;;;;;5007091;28;20120;-38
2022/08/03 04:45:29;;;;;;;10.48;3.45;;;16.50;99.90;;;;;;5006794;28;20046;-37
2022/08/03 04:47:56;;;;;;;15.40;3.63;;;16.50;99.90;;;;;;5006911;28;20052;-38
2022/08/03 04:50:22;;;;;;;6.35;3.30;;;16.50;99.90;;;;;;5006692;28;20052;-38
2022/08/03 04:52:47;;;;;;;11.57;4.22;;;16.60;99.90;;;;;;5004989;28;20038;-38
2022/08/03 04:55:29;;;;;;;9.07;3.15;;;16.60;99.90;;;;;;5006296;28;20045;-38
2022/08/03 04:57:56;;;;;;;11.98;3.60;;;16.70;99.90;;;;;;5006479;28;20049;-38
2022/08/03 05:00:22;;;;;;;8.95;3.60;;;16.80;99.90;;;;;;5006766;28;20049;-38
2022/08/03 05:02:48;;;;;;;12.02;3.10;;;16.80;99.90;;;;;;5006526;28;20053;-38
2022/08/03 05:05:15;;;;;;;9.52;4.38;;;16.90;99.90;;;;;;5006449;28;20049;-38
2022/08/03 05:07:41;;;;;;;6.95;3.00;;;16.90;99.90;;;;;;5006085;28;20042;-38
2022/08/03 05:10:09;;;;;;;10.25;3.92;;;17.00;99.90;;;;;;5006081;28;20399;-38
2022/08/03 05:12:34;;;;;;;7.35;2.97;;;17.20;99.90;;;;;;5005874;28;20057;-38
2022/08/03 05:15:00;;;;;;;10.73;3.38;;;17.30;99.90;;;;;;5006466;28;20506;-37
2022/08/03 05:17:27;;;;;;;8.40;3.20;;;17.40;99.90;;;;;;5006299;28;20050;-37
2022/08/03 05:19:53;;;;;;;8.70;3.13;;;17.60;99.90;;;;;;5007006;28;20033;-37
2022/08/03 05:22:20;;;;;;;10.50;2.90;;;17.90;99.90;;;;;;5006555;28;20423;-37
2022/08/03 05:24:45;;;;;;;7.75;3.05;;;18.20;99.90;;;;;;5006525;28;20088;-37
2022/08/03 05:27:16;;;;;;;8.48;2.65;;;18.00;99.90;;;;;;5006326;28;20128;-37
2022/08/03 05:29:42;;;;;;;7.70;2.28;;;18.20;99.90;;;;;;5006427;28;20042;-37
2022/08/03 05:32:08;;;;;;;10.23;2.65;;;18.40;99.90;;;;;;5006203;28;20053;-37
2022/08/03 05:34:33;;;;;;;11.55;2.83;;;18.80;99.90;;;;;;5005802;28;20049;-37
2022/08/03 05:36:59;;;;;;;7.15;2.42;;;18.80;99.90;;;;;;5005780;28;20480;-37
2022/08/03 05:39:25;;;;;;;13.38;3.63;;;19.20;99.90;;;;;;5005660;28;20046;-37
2022/08/03 05:41:50;;;;;;;8.77;2.33;;;20.00;99.90;;;;;;5005682;28;20116;-37
2022/08/03 05:44:16;;;;;;;10.00;2.38;;;21.40;99.90;;;;;;5005706;28;20054;-37
2022/08/03 05:46:42;;;;;;;8.10;2.53;;;21.80;99.90;;;;;;5005706;28;20042;-37
2022/08/03 05:49:07;;;;;;;8.60;2.55;;;21.90;99.90;;;;;;5005634;28;20057;-37
2022/08/03 05:51:33;;;;;;;8.48;2.30;;;21.70;99.90;;;;;;5006095;28;20057;-37
2022/08/03 05:53:59;;;;;;;9.63;3.35;;;21.50;99.90;;;;;;5006273;28;20048;-37
2022/08/03 05:56:24;;;;;;;7.32;2.10;;;21.40;99.90;;;;;;5006311;28;20037;-38
2022/08/03 05:58:51;;;;;;;7.30;2.10;;;21.50;99.90;;;;;;5006520;28;20135;-37
2022/08/03 06:01:17;;;;;;;8.98;2.75;;;21.80;99.90;;;;;;5006136;28;20046;-37
2022/08/03 06:03:44;;;;;;;7.90;2.88;;;22.20;99.90;;;;;;5005594;28;20037;-38
2022/08/03 06:06:10;;;;;;;11.65;1.95;;;22.20;99.90;;;;;;5005839;28;20078;-38
2022/08/03 06:08:36;;;;;;;7.65;2.08;;;22.20;99.90;;;;;;5003204;28;20061;-38
2022/08/03 06:11:02;;;;;;;7.18;2.03;;;22.20;99.90;;;;;;5006360;28;20038;-38
2022/08/03 06:13:28;;;;;;;7.25;1.90;;;22.40;99.90;;;;;;5005804;28;20097;-38
2022/08/03 06:15:54;;;;;;;9.13;2.33;;;23.60;99.90;;;;;;5005994;28;20085;-38
2022/08/03 06:18:19;;;;;;;10.27;1.73;;;24.40;99.90;;;;;;5008794;28;20499;-38
2022/08/03 06:20:45;;;;;;;10.23;1.70;;;24.40;99.90;;;;;;5009690;28;20065;-38
2022/08/03 06:23:11;;;;;;;9.77;1.55;;;24.40;99.90;;;;;;5009326;28;20045;-38
2022/08/03 06:25:36;;;;;;;8.38;1.70;;;24.20;99.90;;;;;;5009262;28;20056;-39
2022/08/03 06:28:03;;;;;;;6.57;1.98;;;24.10;99.90;;;;;;5009073;28;20072;-39
2022/08/03 06:30:29;;;;;;;10.75;1.92;;;24.00;99.90;;;;;;5008069;28;20041;-38
2022/08/03 06:32:55;;;;;;;6.75;1.42;;;24.10;99.90;;;;;;5009254;28;20050;-39
2022/08/03 06:35:21;;;;;;;8.05;1.40;;;24.00;99.90;;;;;;5007936;28;20049;-39
2022/08/03 06:37:49;;;;;;;6.30;1.48;;;23.90;99.90;;;;;;5009172;28;20046;-38
2022/08/03 06:40:20;;;;;;;8.10;1.17;;;23.90;99.90;;;;;;5009276;28;20042;-38
2022/08/03 06:42:46;;;;;;;10.23;1.67;;;24.00;99.90;;;;;;4991417;28;20103;-39
2022/08/03 06:45:12;;;;;;;8.02;1.58;;;24.00;99.90;;;;;;5007727;28;20050;-38
2022/08/03 06:47:38;;;;;;;7.78;1.38;;;24.20;99.90;;;;;;5009361;28;20137;-39
2022/08/03 06:50:06;;;;;;;8.25;1.50;;;24.30;99.90;;;;;;5009005;28;20053;-38
2022/08/03 06:52:31;;;;;;;8.88;1.33;;;24.90;99.90;;;;;;5009432;28;20084;-39
2022/08/03 06:54:57;;;;;;;7.22;1.33;;;26.30;99.90;;;;;;5008753;28;20080;-39
2022/08/03 06:57:24;;;;;;;13.00;1.27;;;27.10;99.90;;;;;;5009195;28;20408;-39
2022/08/03 06:59:49;;;;;;;12.05;1.92;;;27.70;97.90;;;;;;5008747;28;20583;-39
2022/08/03 07:02:17;;;;;;;10.10;1.73;;;28.00;96.00;;;;;;5009278;28;20117;-39
2022/08/03 07:04:43;;;;;;;9.45;1.08;;;28.20;94.80;;;;;;5008897;28;20518;-39
2022/08/03 07:07:08;;;;;;;8.93;1.20;;;28.60;93.70;;;;;;5008822;28;20068;-39
2022/08/03 07:09:34;;;;;;;9.70;1.90;;;28.90;92.80;;;;;;5008814;28;20136;-39
2022/08/03 07:12:01;;;;;;;4.95;1.20;;;28.80;92.10;;;;;;5009091;28;20045;-39
2022/08/03 07:14:27;;;;;;;9.35;1.55;;;28.80;91.70;;;;;;5008301;28;20070;-39
2022/08/03 07:16:53;;;;;;;7.63;1.25;;;28.50;91.50;;;;;;5008476;28;20078;-39
2022/08/03 07:19:19;;;;;;;9.82;1.65;;;28.10;91.50;;;;;;5008628;28;20081;-39
2022/08/03 07:21:46;;;;;;;8.40;1.83;;;28.00;91.50;;;;;;5008789;28;20045;-39
2022/08/03 07:24:11;;;;;;;9.38;1.50;;;27.80;91.30;;;;;;5008544;28;20578;-39
2022/08/03 07:26:37;;;;;;;14.15;2.10;;;27.50;92.10;;;;;;5007956;28;20089;-39
2022/08/03 07:29:03;;;;;;;8.15;1.70;;;27.20;92.70;;;;;;5008628;28;20073;-39
2022/08/03 07:31:29;;;;;;;6.88;1.23;;;27.10;92.90;;;;;;5007912;28;20171;-39
2022/08/03 07:33:54;;;;;;;11.05;2.65;;;28.00;91.30;;;;;;5008391;28;20053;-39
2022/08/03 07:36:21;;;;;;;5.85;1.15;;;29.30;89.60;;;;;;5009055;28;20427;-39
2022/08/03 07:38:46;;;;;;;11.63;2.28;;;29.90;87.90;;;;;;5007702;28;20519;-39
2022/08/03 07:41:12;;;;;;;7.40;1.42;;;31.20;84.40;;;;;;5008310;28;20041;-39
2022/08/03 07:43:38;;;;;;;9.27;1.70;;;32.00;82.80;;;;;;4987697;28;20049;-39
2022/08/03 07:46:03;;;;;;;5.47;1.52;;;32.40;79.20;;;;;;5003788;28;20049;-38
2022/08/03 07:48:29;;;;;;;8.32;1.55;;;33.40;75.80;;;;;;5005523;28;20056;-38
2022/08/03 07:50:54;;;;;;;9.48;1.15;;;34.30;72.10;;;;;;5005114;28;20091;-38
2022/08/03 07:53:20;;;;;;;12.27;2.05;;;35.20;69.90;;;;;;5004794;28;20050;-38
2022/08/03 07:55:46;;;;;;;10.95;1.65;;;36.50;66.70;;;;;;5004206;28;20046;-39
2022/08/03 07:58:14;;;;;;;7.07;1.27;;;37.50;63.90;;;;;;5004916;28;20046;-39
2022/08/03 08:00:41;;;;;;;11.65;1.98;;;38.20;61.70;;;;;;5003886;28;20056;-39
2022/08/03 08:03:07;;;;;;;7.85;1.33;;;38.70;59.20;;;;;;5004881;28;20064;-39
2022/08/03 08:05:33;;;;;;;9.98;1.27;;;39.40;57.40;;;;;;5004683;28;20476;-38
2022/08/03 08:08:00;;;;;;;7.28;1.27;;;39.70;57.10;;;;;;5004525;28;20076;-39
2022/08/03 08:10:26;;;;;;;7.68;1.33;;;40.30;55.70;;;;;;5004799;28;20388;-39
2022/08/03 08:12:52;;;;;;;8.55;1.25;;;40.80;55.10;;;;;;5003733;28;20440;-39
2022/08/03 08:15:18;;;;;;;7.47;1.17;;;41.30;54.40;;;;;;5004497;28;20051;-38
2022/08/03 08:17:47;;;;;;;9.45;1.70;;;41.70;53.00;;;;;;5003959;28;20641;-38
2022/08/03 08:20:17;;;;;;;7.57;1.05;;;41.80;52.30;;;;;;5004684;28;20420;-39
2022/08/03 08:22:42;;;;;;;5.57;1.10;;;41.90;51.20;;;;;;5004307;28;20571;-38
2022/08/03 08:25:09;;;;;;;11.20;1.60;;;42.00;51.20;;;;;;5004449;28;20046;-38
2022/08/03 08:27:41;;;;;;;9.18;1.85;;;41.90;50.70;;;;;;5005050;28;20498;-39
2022/08/03 08:30:07;;;;;;;6.43;1.05;;;42.00;49.60;;;;;;5005016;28;20488;-38
2022/08/03 08:32:33;;;;;;;7.95;0.90;;;42.40;50.60;;;;;;5004337;28;20052;-38
2022/08/03 08:34:59;;;;;;;8.43;1.23;;;42.80;49.50;;;;;;5004383;28;20057;-38
2022/08/03 08:37:25;;;;;;;7.85;1.63;;;43.30;48.90;;;;;;5003985;28;20048;-38
2022/08/03 08:39:51;;;;;;;12.70;1.73;;;43.10;48.20;;;;;;5003558;28;20101;-38
2022/08/03 08:42:16;;;;;;;8.35;1.35;;;42.70;48.80;;;;;;5004745;28;20046;-38
2022/08/03 08:44:42;;;;;;;9.95;1.42;;;42.00;49.30;;;;;;4977997;28;20053;-38
2022/08/03 08:47:08;;;;;;;6.65;1.05;;;41.80;49.20;;;;;;5004183;28;20068;-38
2022/08/03 08:49:36;;;;;;;8.15;1.45;;;41.70;49.40;;;;;;5004111;28;20512;-38
2022/08/03 08:52:04;;;;;;;9.38;1.52;;;41.70;49.40;;;;;;5003971;28;20118;-38
2022/08/03 08:54:32;;;;;;;12.63;1.58;;;41.70;49.10;;;;;;5004216;28;20048;-39
2022/08/03 08:57:00;;;;;;;7.45;1.30;;;41.50;48.20;;;;;;5003985;28;20121;-39
2022/08/03 08:59:26;;;;;;;8.10;1.55;;;41.70;48.90;;;;;;5004133;28;20064;-39
2022/08/03 09:01:57;;;;;;;10.80;1.17;;;42.00;48.90;;;;;;5003554;28;20523;-38
2022/08/03 09:04:23;;;;;;;11.10;1.25;;;42.40;49.10;;;;;;5003321;28;20752;-38
2022/08/03 09:06:49;;;;;;;7.50;1.00;;;42.80;48.70;;;;;;5004018;28;20045;-38
2022/08/03 09:09:15;;;;;;;6.93;1.13;;;43.10;48.10;;;;;;5005398;28;20055;-38
2022/08/03 09:11:44;;;;;;;10.48;1.67;;;43.30;48.20;;;;;;5004716;28;20041;-38
2022/08/03 09:14:10;;;;;;;12.70;2.00;;;43.70;47.50;;;;;;5003204;28;20053;-38
2022/08/03 09:16:36;;;;;;;9.63;1.25;;;43.50;47.40;;;;;;5003531;28;20149;-38
2022/08/03 09:19:15;;;;;;;8.23;1.17;;;43.60;46.30;;;;;;5003557;28;20368;-38
2022/08/03 09:21:41;;;;;;;8.02;1.27;;;43.90;47.50;;;;;;5003659;28;20088;-38
2022/08/03 09:24:07;;;;;;;5.75;1.17;;;44.40;46.60;;;;;;5003840;28;20404;-38
2022/08/03 09:26:34;;;;;;;6.55;1.33;;;44.80;46.00;;;;;;5006495;28;20046;-38
2022/08/03 09:29:09;;;;;;;10.50;1.35;;;45.10;45.40;;;;;;5006122;28;20046;-38
2022/08/03 09:31:41;;;;;;;4.75;0.63;;;45.50;45.50;;;;;;5005629;28;20052;-38
2022/08/03 09:34:12;;;;;;;6.50;0.95;;;45.20;45.00;;;;;;5005970;28;20537;-38
2022/08/03 09:36:42;;;;;;;4.18;0.80;;;45.40;44.80;;;;;;5004616;28;20050;-38
2022/08/03 09:39:16;;;;;;;6.25;1.00;;;45.80;44.90;;;;;;5005392;28;20056;-38
2022/08/03 09:42:02;;;;;;;4.80;0.80;;;46.10;44.40;;;;;;5005854;28;20487;-38
2022/08/03 09:44:36;;;;;;;4.68;0.75;;;46.40;44.10;;;;;;4978319;28;20104;-38
2022/08/03 09:47:01;;;;;;;6.22;0.70;;;45.50;44.30;;;;;;5002220;28;20116;-38
2022/08/03 09:49:27;;;;;;;5.18;0.60;;;45.50;43.90;;;;;;5003069;28;20476;-38
2022/08/03 09:51:53;;;;;;;9.75;0.90;;;45.00;44.00;;;;;;5003496;28;20052;-38
2022/08/03 09:54:29;;;;;;;9.20;1.30;;;44.70;44.40;;;;;;5007229;28;20042;-38
2022/08/03 09:56:56;;;;;;;8.60;0.98;;;44.90;45.30;;;;;;5006890;28;20042;-38
2022/08/03 09:59:27;;;;;;;6.70;0.82;;;45.10;45.20;;;;;;5006587;28;20535;-38
2022/08/03 10:01:54;;;;;;;5.18;0.70;;;45.40;44.20;;;;;;5006962;28;20038;-38
2022/08/03 10:04:21;;;;;;;7.00;1.50;;;45.40;43.90;;;;;;5006905;28;20046;-38
2022/08/03 10:07:08;;;;;;;5.70;0.90;;;45.70;44.20;;;;;;5007094;28;20042;-39
2022/08/03 10:09:35;;;;;;;8.25;0.88;;;45.90;44.00;;;;;;5008151;28;20048;-39
2022/08/03 10:12:11;;;;;;;5.22;0.70;;;45.60;44.00;;;;;;5006692;28;20073;-39
2022/08/03 10:14:40;;;;;;;5.15;0.55;;;45.80;44.10;;;;;;5008554;28;20062;-39
2022/08/03 10:17:07;;;;;;;6.10;1.13;;;45.70;43.60;;;;;;5008081;28;20124;-39
2022/08/03 10:19:33;;;;;;;3.53;0.80;;;45.30;43.80;;;;;;5008496;28;20053;-40
2022/08/03 10:22:26;;;;;;;8.15;1.13;;;45.40;43.70;;;;;;5008057;28;20046;-39
2022/08/03 10:24:54;;;;;;;7.03;0.95;;;45.40;44.30;;;;;;5004366;28;20877;-39
2022/08/03 10:27:22;;;;;;;7.82;1.33;;;45.30;43.60;;;;;;5006783;28;20042;-39
2022/08/03 10:29:52;;;;;;;7.47;1.25;;;45.30;44.10;;;;;;5007518;28;20488;-39
2022/08/03 10:32:26;;;;;;;8.40;1.20;;;45.10;44.30;;;;;;5007608;28;20391;-39
2022/08/03 10:35:01;;;;;;;8.05;1.15;;;44.70;44.60;;;;;;5007402;28;20103;-39
2022/08/03 10:37:30;;;;;;;8.95;1.50;;;44.70;45.40;;;;;;5006822;28;20054;-39
2022/08/03 10:39:58;;;;;;;4.80;1.00;;;44.40;45.80;;;;;;5006960;28;20076;-39
2022/08/03 10:42:27;;;;;;;10.80;1.85;;;43.80;46.00;;;;;;5006910;28;20049;-39
2022/08/03 10:45:05;;;;;;;9.02;1.40;;;43.40;45.20;;;;;;5006977;28;20046;-38
2022/08/03 10:47:33;;;;;;;8.27;1.20;;;43.30;45.80;;;;;;5006722;28;20084;-38
2022/08/03 10:49:59;;;;;;;9.00;1.50;;;43.10;46.00;;;;;;5006421;28;20365;-38
2022/08/03 10:52:25;;;;;;;9.45;1.40;;;42.70;46.20;;;;;;5006694;28;20068;-39
2022/08/03 10:57:53;;;;;;;12.20;1.70;;;41.40;47.40;;;;;;5006716;28;20046;-39
2022/08/03 11:00:26;;;;;;;8.77;2.03;;;39.70;49.30;;;;;;5006342;28;20147;-39
2022/08/03 11:03:07;;;;;;;14.18;1.92;;;38.40;51.40;;;;;;5006723;28;20041;-39
2022/08/03 11:05:40;;;;;;;9.35;1.77;;;37.30;52.00;;;;;;5007564;28;20041;-38
2022/08/03 11:08:38;;;;;;;10.55;1.75;;;36.60;53.90;;;;;;5007210;28;20061;-38
2022/08/03 11:11:16;;;;;;;9.23;1.85;;;35.90;54.50;;;;;;4994115;28;20081;-37
2022/08/03 11:14:03;;;;;;;11.68;1.70;;;35.30;56.50;;;;;;5006701;28;20061;-38
2022/08/03 11:16:33;;;;;;;9.50;1.88;;;34.80;57.20;;;;;;5007186;28;20053;-38
2022/08/03 11:19:02;;;;;;;17.52;2.25;;;34.30;57.60;;;;;;5007614;28;20480;-38
2022/08/03 11:21:49;;;;;;;11.80;1.85;;;33.90;58.70;;;;;;5006510;28;20511;-39
2022/08/03 11:24:38;;;;;;;12.45;2.65;;;33.60;58.60;;;;;;5006158;28;20500;-38
2022/08/03 11:27:22;;;;;;;10.27;2.03;;;33.20;59.90;;;;;;5006224;28;20046;-37
2022/08/03 11:30:07;;;;;;;11.25;2.05;;;33.00;60.70;;;;;;5006663;28;20904;-38
2022/08/03 11:32:39;;;;;;;9.02;1.67;;;32.80;61.70;;;;;;5006644;28;20099;-38
2022/08/03 11:35:10;;;;;;;10.45;2.75;;;32.50;62.00;;;;;;5006538;28;20050;-38
2022/08/03 11:37:56;;;;;;;11.55;2.40;;;32.30;62.00;;;;;;5006491;28;20046;-39
2022/08/03 11:40:42;;;;;;;10.20;1.73;;;32.20;62.70;;;;;;5006221;28;20038;-38
2022/08/03 11:43:30;;;;;;;12.02;1.88;;;32.10;63.70;;;;;;5005932;28;20067;-38
2022/08/03 11:45:58;;;;;;;8.73;1.40;;;31.20;62.90;;;;;;5006171;28;20123;-38
2022/08/03 11:48:44;;;;;;;8.40;1.33;;;31.80;63.90;;;;;;5005325;28;20104;-37
2022/08/03 11:51:21;;;;;;;9.05;1.92;;;31.60;65.20;;;;;;5006507;28;20057;-38
2022/08/03 11:53:58;;;;;;;8.10;2.03;;;31.30;64.20;;;;;;5005728;28;20050;-38
2022/08/03 11:56:24;;;;;;;5.57;1.73;;;31.20;65.00;;;;;;5007794;28;20038;-37
2022/08/03 11:58:55;;;;;;;10.65;1.70;;;31.10;65.10;;;;;;5007698;28;20045;-38
2022/08/03 12:01:23;;;;;;;7.82;1.83;;;30.90;65.80;;;;;;5007436;28;20761;-37
2022/08/03 12:03:50;;;;;;;12.00;2.05;;;30.60;67.00;;;;;;5007826;28;20106;-37
2022/08/03 12:06:17;;;;;;;6.55;1.98;;;30.10;67.40;;;;;;5007652;28;20108;-37
2022/08/03 12:08:44;;;;;;;8.48;1.38;;;30.00;68.20;;;;;;5007084;28;20050;-38
2022/08/03 12:11:13;;;;;;;9.48;1.75;;;29.90;68.30;;;;;;5007221;28;20046;-37
2022/08/03 12:13:46;;;;;;;7.93;1.50;;;29.90;68.60;;;;;;5006653;28;20053;-37
2022/08/03 12:16:22;;;;;;;6.60;1.77;;;29.90;69.60;;;;;;5006691;28;20759;-37
2022/08/03 12:19:02;;;;;;;6.47;1.45;;;29.80;70.20;;;;;;5007595;28;20050;-37
2022/08/03 12:21:29;;;;;;;9.40;1.30;;;29.80;69.60;;;;;;5006835;28;20425;-37
2022/08/03 12:24:03;;;;;;;9.23;1.58;;;29.70;72.60;;;;;;5007135;28;20455;-37
2022/08/03 12:26:41;;;;;;;10.20;2.20;;;29.60;72.90;;;;;;5007265;28;20443;-37
2022/08/03 12:29:07;;;;;;;8.82;1.90;;;29.50;76.70;;;;;;5008001;28;20049;-37
2022/08/03 12:31:34;;;;;;;8.55;1.60;;;29.50;76.00;;;;;;5007533;28;20099;-37
2022/08/03 12:34:05;;;;;;;8.57;1.33;;;29.40;74.80;;;;;;5007553;28;20045;-37
2022/08/03 12:36:34;;;;;;;11.93;1.80;;;29.40;74.70;;;;;;5007733;28;20068;-37
2022/08/03 12:39:10;;;;;;;8.45;1.48;;;29.40;75.40;;;;;;5007197;28;20105;-37
2022/08/03 12:41:38;;;;;;;7.97;1.00;;;29.40;75.00;;;;;;5007171;28;20045;-37
2022/08/03 12:44:05;;;;;;;7.47;1.30;;;29.40;75.40;;;;;;5007210;28;20361;-37
2022/08/03 12:46:36;;;;;;;10.35;1.25;;;29.40;76.80;;;;;;5006732;28;20402;-37
2022/08/03 12:49:17;;;;;;;16.00;2.22;;;29.10;75.90;;;;;;5006730;28;20484;-37
2022/08/03 12:51:43;;;;;;;12.07;1.47;;;29.30;72.40;;;;;;5006738;28;20061;-37
2022/08/03 12:54:15;;;;;;;7.32;1.33;;;29.30;74.90;;;;;;5006848;28;20586;-37
2022/08/03 12:57:03;;;;;;;6.55;1.50;;;29.30;76.90;;;;;;5006442;28;20049;-37
2022/08/03 12:59:30;;;;;;;9.20;1.70;;;29.40;75.40;;;;;;5006467;28;20049;-37
2022/08/03 13:01:57;;;;;;;9.75;1.92;;;29.30;77.40;;;;;;5006370;28;20099;-37
2022/08/03 13:04:34;;;;;;;9.05;1.52;;;29.20;76.50;;;;;;5006513;28;20029;-37